createdAt,value
2023-05-21T00:01:18.509Z,100476.38
2023-05-21T00:04:21.198Z,100492.47
2023-05-21T00:07:23.962Z,100499.19
2023-05-21T00:10:27.707Z,100511.69
2023-05-21T00:13:30.265Z,100496.00
2023-05-21T00:16:33.092Z,100498.34
2023-05-21T00:19:35.949Z,100475.88
2023-05-21T00:22:38.627Z,100513.97
2023-05-21T00:25:41.129Z,100487.87
2023-05-21T00:28:44.931Z,100509.06
2023-05-21T00:31:47.367Z,100490.12
2023-05-21T00:34:50.111Z,100502.06
2023-05-21T00:37:54.092Z,100421.81
2023-05-21T00:40:56.818Z,100504.78
2023-05-21T00:44:00.457Z,100491.63
2023-05-21T00:47:04.634Z,100494.41
2023-05-21T00:50:08.627Z,100505.25
2023-05-21T00:53:11.447Z,100500.50
2023-05-21T00:56:13.893Z,100481.63
2023-05-21T00:59:17.584Z,100504.84
2023-05-21T01:02:20.440Z,100506.47
2023-05-21T01:05:23.285Z,100486.72
2023-05-21T01:08:28.886Z,100495.47
2023-05-21T01:11:39.932Z,100487.47
2023-05-21T01:14:42.782Z,100492.22
2023-05-21T01:17:46.343Z,100480.63
2023-05-21T01:20:49.314Z,100488.25
2023-05-21T01:23:52.384Z,100508.25
2023-05-21T01:26:54.798Z,100476.25
2023-05-21T01:29:57.842Z,100481.84
2023-05-21T01:33:18.493Z,100479.88
2023-05-21T01:36:29.375Z,100497.94
2023-05-21T01:39:38.826Z,100502.28
2023-05-21T01:42:44.657Z,100499.81
2023-05-21T01:45:48.775Z,100500.12
2023-05-21T01:48:55.969Z,100492.16
2023-05-21T01:51:58.565Z,100481.97
2023-05-21T01:55:01.331Z,100481.63
2023-05-21T01:58:03.920Z,100494.87
2023-05-21T02:01:06.856Z,100476.00
2023-05-21T02:04:09.648Z,100497.59
2023-05-21T02:07:14.513Z,100492.03
2023-05-21T02:10:17.400Z,100497.59
2023-05-21T02:13:22.336Z,100493.59
2023-05-21T02:16:26.334Z,100477.63
2023-05-21T02:19:28.936Z,100484.00
2023-05-21T02:22:31.597Z,100494.28
2023-05-21T02:25:34.172Z,100492.69
2023-05-21T02:28:36.984Z,100494.66
2023-05-21T02:31:39.441Z,100484.63
2023-05-21T02:34:44.000Z,100481.34
2023-05-21T02:37:47.022Z,100468.59
2023-05-21T02:40:53.807Z,100464.53
2023-05-21T02:43:56.393Z,100460.44
2023-05-21T02:46:59.216Z,100470.34
2023-05-21T02:50:02.142Z,100463.56
2023-05-21T02:53:06.252Z,100474.50
2023-05-21T02:56:08.981Z,100484.00
2023-05-21T02:59:11.636Z,100461.03
2023-05-21T03:02:14.880Z,100490.78
2023-05-21T03:05:18.446Z,100495.47
2023-05-21T03:08:21.526Z,100489.06
2023-05-21T03:11:24.217Z,100473.41
2023-05-21T03:14:26.589Z,100465.75
2023-05-21T03:17:29.501Z,100453.00
2023-05-21T03:20:32.714Z,100463.31
2023-05-21T03:23:35.505Z,100427.16
2023-05-21T03:26:37.987Z,100468.22
2023-05-21T03:29:40.778Z,100436.03
2023-05-21T03:32:45.160Z,100466.59
2023-05-21T03:35:48.262Z,100452.91
2023-05-21T03:38:51.074Z,100478.97
2023-05-21T03:41:53.945Z,100462.47
2023-05-21T03:44:57.258Z,100490.16
2023-05-21T03:48:02.186Z,100492.13
2023-05-21T03:51:05.255Z,100492.13
2023-05-21T03:54:07.887Z,100495.38
2023-05-21T03:57:10.868Z,100494.63
2023-05-21T04:00:14.504Z,100492.22
2023-05-21T04:03:18.363Z,100493.50
2023-05-21T04:06:21.712Z,100484.19
2023-05-21T04:09:24.297Z,100501.91
2023-05-21T04:12:27.512Z,100483.50
2023-05-21T04:15:29.925Z,100477.16
2023-05-21T04:18:34.310Z,100495.69
2023-05-21T04:21:37.225Z,100479.31
2023-05-21T04:24:40.560Z,100501.03
2023-05-21T04:27:43.583Z,100484.63
2023-05-21T04:30:49.938Z,100510.34
2023-05-21T04:33:52.926Z,100504.34
2023-05-21T04:36:56.945Z,100471.81
2023-05-21T04:40:01.591Z,100505.47
2023-05-21T04:43:05.604Z,100491.81
2023-05-21T04:46:08.934Z,100478.19
2023-05-21T04:49:11.684Z,100507.13
2023-05-21T04:52:14.413Z,100489.47
2023-05-21T04:55:19.162Z,100508.00
2023-05-21T04:58:21.782Z,100494.47
2023-05-21T05:01:25.696Z,100468.88
2023-05-21T05:04:28.312Z,100492.91
2023-05-21T05:07:31.462Z,100492.97
2023-05-21T05:10:33.938Z,100481.78
2023-05-21T05:13:36.613Z,100486.69
2023-05-21T05:16:39.101Z,100453.59
2023-05-21T05:19:42.940Z,100484.66
2023-05-21T05:22:45.603Z,100480.81
2023-05-21T05:25:48.585Z,100479.31
2023-05-21T05:28:51.355Z,100475.47
2023-05-21T05:31:54.209Z,100455.41
2023-05-21T05:34:56.592Z,100471.63
2023-05-21T05:37:59.568Z,100474.94
2023-05-21T05:41:01.996Z,100489.50
2023-05-21T05:44:04.874Z,100463.97
2023-05-21T05:47:10.798Z,100486.56
2023-05-21T05:50:13.775Z,100466.56
2023-05-21T05:53:16.564Z,100493.81
2023-05-21T05:56:19.234Z,100457.94
2023-05-21T05:59:24.061Z,100477.19
2023-05-21T06:02:27.122Z,100485.25
2023-05-21T06:05:29.899Z,100456.47
2023-05-21T06:08:37.277Z,100458.50
2023-05-21T06:11:40.983Z,100460.56
2023-05-21T06:14:45.863Z,100483.03
2023-05-21T06:17:48.887Z,100460.28
2023-05-21T06:20:51.424Z,100387.84
2023-05-21T06:23:54.887Z,100467.16
2023-05-21T06:26:57.256Z,100464.78
2023-05-21T06:30:00.356Z,100436.41
2023-05-21T06:33:03.015Z,100458.44
2023-05-21T06:36:06.453Z,100424.81
2023-05-21T06:39:08.989Z,100448.84
2023-05-21T06:42:11.985Z,100428.47
2023-05-21T06:45:14.629Z,100380.91
2023-05-21T06:48:18.720Z,100405.66
2023-05-21T06:51:21.849Z,100396.06
2023-05-21T06:54:26.779Z,100444.78
2023-05-21T06:57:29.630Z,100386.03
2023-05-21T07:00:33.029Z,100438.00
2023-05-21T07:03:36.645Z,100441.56
2023-05-21T07:06:39.773Z,100439.09
2023-05-21T07:09:42.472Z,100422.28
2023-05-21T07:12:45.520Z,100406.25
2023-05-21T07:15:48.228Z,100443.38
2023-05-21T07:18:50.952Z,100443.31
2023-05-21T07:21:53.480Z,100418.09
2023-05-21T07:24:56.292Z,100437.28
2023-05-21T07:27:59.354Z,100418.78
2023-05-21T07:31:02.903Z,100426.63
2023-05-21T07:34:06.420Z,100439.75
2023-05-21T07:37:09.261Z,100427.97
2023-05-21T07:40:12.446Z,100427.16
2023-05-21T07:43:15.080Z,100434.22
2023-05-21T07:46:17.586Z,100434.91
2023-05-21T07:49:20.663Z,100432.69
2023-05-21T07:52:23.310Z,100436.13
2023-05-21T07:55:26.190Z,100431.94
2023-05-21T07:58:34.171Z,100418.34
2023-05-21T08:01:37.612Z,100424.34
2023-05-21T08:04:41.501Z,100439.12
2023-05-21T08:07:44.244Z,100425.00
2023-05-21T08:10:47.884Z,100407.44
2023-05-21T08:13:50.609Z,100427.53
2023-05-21T08:16:53.414Z,100406.75
2023-05-21T08:19:55.895Z,100424.97
2023-05-21T08:23:00.444Z,100434.22
2023-05-21T08:26:03.778Z,100422.75
2023-05-21T08:29:06.739Z,100409.81
2023-05-21T08:32:10.097Z,100432.81
2023-05-21T08:35:13.049Z,100421.34
2023-05-21T08:38:17.064Z,100409.78
2023-05-21T08:41:24.253Z,100422.25
2023-05-21T08:44:31.067Z,100417.69
2023-05-21T08:47:36.109Z,100435.66
2023-05-21T08:50:39.192Z,100404.94
2023-05-21T08:53:45.769Z,100434.66
2023-05-21T08:56:49.576Z,100427.78
2023-05-21T08:59:52.792Z,100433.63
2023-05-21T09:03:01.267Z,100427.22
2023-05-21T09:06:04.604Z,100431.66
2023-05-21T09:09:40.472Z,100410.41
2023-05-21T09:12:43.205Z,100397.25
2023-05-21T09:15:47.098Z,100428.75
2023-05-21T09:18:50.282Z,100419.50
2023-05-21T09:21:53.225Z,100435.47
2023-05-21T09:24:56.047Z,100440.37
2023-05-21T09:28:01.661Z,100425.19
2023-05-21T09:31:04.816Z,100427.13
2023-05-21T09:34:07.290Z,100407.28
2023-05-21T09:37:23.586Z,100416.78
2023-05-21T09:40:29.590Z,100426.87
2023-05-21T09:43:32.586Z,100415.53
2023-05-21T09:46:42.603Z,100421.75
2023-05-21T09:49:45.680Z,100425.69
2023-05-21T09:52:50.429Z,100404.31
2023-05-21T09:55:57.917Z,100431.28
2023-05-21T09:59:06.523Z,100426.97
2023-05-21T10:02:21.067Z,100416.59
2023-05-21T10:05:29.417Z,100417.59
2023-05-21T10:08:36.434Z,100420.31
2023-05-21T10:11:42.026Z,100393.66
2023-05-21T10:14:49.532Z,100414.69
2023-05-21T10:17:52.650Z,100390.88
2023-05-21T10:20:55.649Z,100410.78
2023-05-21T10:23:58.742Z,100391.16
2023-05-21T10:27:02.492Z,100386.09
2023-05-21T10:30:06.724Z,100397.19
2023-05-21T10:33:09.398Z,100401.78
2023-05-21T10:36:12.430Z,100390.63
2023-05-21T10:39:15.992Z,100384.78
2023-05-21T10:42:32.141Z,100400.91
2023-05-21T10:46:29.271Z,100383.47
2023-05-21T10:50:10.265Z,100396.19
2023-05-21T10:53:43.694Z,100377.69
2023-05-21T10:57:00.243Z,100385.78
2023-05-21T11:00:06.194Z,100368.09
2023-05-21T11:03:11.495Z,100377.50
2023-05-21T11:06:23.359Z,100378.47
2023-05-21T11:09:27.133Z,100381.12
2023-05-21T11:12:34.940Z,100371.56
2023-05-21T11:15:59.639Z,100375.94
2023-05-21T11:19:02.914Z,100369.44
2023-05-21T11:22:08.442Z,100356.25
2023-05-21T11:25:12.616Z,100371.34
2023-05-21T11:28:15.749Z,100359.06
2023-05-21T11:31:29.714Z,100371.38
2023-05-21T11:34:42.635Z,100355.25
2023-05-21T11:37:53.719Z,100365.38
2023-05-21T11:41:03.808Z,100359.31
2023-05-21T11:44:09.019Z,100346.38
2023-05-21T11:47:15.073Z,100337.38
2023-05-21T11:50:18.399Z,100359.03
2023-05-21T11:53:21.119Z,100344.19
2023-05-21T11:56:24.492Z,100352.63
2023-05-21T11:59:27.206Z,100348.69
2023-05-21T12:02:33.072Z,100328.09
2023-05-21T12:05:49.882Z,100339.09
2023-05-21T12:08:52.793Z,100344.50
2023-05-21T12:11:55.527Z,100341.53
2023-05-21T12:14:58.549Z,100339.09
2023-05-21T12:18:01.388Z,100315.59
2023-05-21T12:21:06.991Z,100318.53
2023-05-21T12:24:09.646Z,100307.72
2023-05-21T12:27:13.558Z,100320.28
2023-05-21T12:30:16.715Z,100330.84
2023-05-21T12:33:19.292Z,100325.69
2023-05-21T12:36:30.391Z,100322.53
2023-05-21T12:39:33.982Z,100312.88
2023-05-21T12:42:37.404Z,100318.00
2023-05-21T12:45:39.985Z,100295.56
2023-05-21T12:48:49.227Z,100316.41
2023-05-21T12:51:51.566Z,100294.53
2023-05-21T12:54:56.599Z,100304.59
2023-05-21T12:58:05.155Z,100303.38
2023-05-21T13:01:12.452Z,100291.59
2023-05-21T13:04:15.396Z,100304.97
2023-05-21T13:07:18.710Z,100278.13
2023-05-21T13:10:21.730Z,100291.37
2023-05-21T13:13:24.383Z,100279.38
2023-05-21T13:16:26.900Z,100266.56
2023-05-21T13:19:29.884Z,100259.22
2023-05-21T13:22:32.367Z,100280.16
2023-05-21T13:25:35.265Z,100276.75
2023-05-21T13:28:37.627Z,100267.50
2023-05-21T13:31:44.379Z,100260.22
2023-05-21T13:34:48.066Z,100248.91
2023-05-21T13:37:51.147Z,100256.72
2023-05-21T13:40:53.581Z,100260.94
2023-05-21T13:43:58.451Z,100222.16
2023-05-21T13:47:01.392Z,100258.06
2023-05-21T13:50:07.104Z,100254.47
2023-05-21T13:53:09.561Z,100249.25
2023-05-21T13:56:14.946Z,100247.09
2023-05-21T13:59:17.404Z,100245.25
2023-05-21T14:02:23.359Z,100241.94
2023-05-21T14:05:26.294Z,100243.09
2023-05-21T14:08:29.557Z,100243.41
2023-05-21T14:11:32.807Z,100243.28
2023-05-21T14:14:36.219Z,100248.56
2023-05-21T14:17:40.756Z,100243.28
2023-05-21T14:20:43.276Z,100241.34
2023-05-21T14:23:47.294Z,100241.34
2023-05-21T14:26:49.830Z,100238.84
2023-05-21T14:29:52.706Z,100246.09
2023-05-21T14:32:58.245Z,100192.09
2023-05-21T14:36:01.802Z,100222.38
2023-05-21T14:39:05.461Z,100215.41
2023-05-21T14:42:08.720Z,100228.81
2023-05-21T14:45:19.032Z,100222.63
2023-05-21T14:48:24.611Z,100217.19
2023-05-21T14:51:27.117Z,100219.53
2023-05-21T14:54:29.894Z,100213.13
2023-05-21T14:57:32.485Z,100221.69
2023-05-21T15:00:36.414Z,100221.84
2023-05-21T15:03:39.003Z,100211.91
2023-05-21T15:06:45.087Z,100221.25
2023-05-21T15:09:48.976Z,100212.69
2023-05-21T15:12:52.525Z,100211.91
2023-05-21T15:15:55.187Z,100206.69
2023-05-21T15:18:58.052Z,100208.34
2023-05-21T15:22:12.552Z,100203.50
2023-05-21T15:25:19.061Z,100205.19
2023-05-21T15:28:31.952Z,100208.19
2023-05-21T15:31:46.154Z,100205.16
2023-05-21T15:34:49.767Z,100205.69
2023-05-21T15:37:56.966Z,100205.84
2023-05-21T15:40:59.616Z,100197.97
2023-05-21T15:44:02.869Z,100196.47
2023-05-21T15:47:05.960Z,100197.34
2023-05-21T15:50:12.218Z,100206.69
2023-05-21T15:53:14.745Z,100204.03
2023-05-21T15:56:17.469Z,100205.78
2023-05-21T15:59:20.680Z,100207.44
2023-05-21T16:02:23.675Z,100211.94
2023-05-21T16:05:27.202Z,100202.41
2023-05-21T16:08:29.703Z,100219.31
2023-05-21T16:11:32.870Z,100210.16
2023-05-21T16:14:35.395Z,100217.50
2023-05-21T16:17:39.612Z,100214.38
2023-05-21T16:20:42.137Z,100214.81
2023-05-21T16:23:44.902Z,100204.84
2023-05-21T16:26:48.674Z,100217.78
2023-05-21T16:29:53.868Z,100217.03
2023-05-21T16:32:56.293Z,100218.81
2023-05-21T16:35:59.160Z,100194.94
2023-05-21T16:39:01.632Z,100214.88
2023-05-21T16:42:04.606Z,100217.31
2023-05-21T16:45:07.544Z,100202.28
2023-05-21T16:48:11.001Z,100220.59
2023-05-21T16:51:13.416Z,100210.75
2023-05-21T16:54:16.745Z,100219.94
2023-05-21T16:57:19.339Z,100219.34
2023-05-21T17:00:32.587Z,100227.03
2023-05-21T17:03:35.123Z,100198.75
2023-05-21T17:06:37.893Z,100232.47
2023-05-21T17:09:43.154Z,100218.06
2023-05-21T17:12:48.198Z,100227.75
2023-05-21T17:15:52.546Z,100220.56
2023-05-21T17:18:55.609Z,100223.00
2023-05-21T17:22:00.476Z,100223.84
2023-05-21T17:25:03.362Z,100229.63
2023-05-21T17:28:07.380Z,100224.03
2023-05-21T17:31:10.321Z,100224.13
2023-05-21T17:34:12.952Z,100228.19
2023-05-21T17:37:15.884Z,100223.50
2023-05-21T17:40:21.405Z,100197.66
2023-05-21T17:43:24.188Z,100206.94
2023-05-21T17:46:26.883Z,100224.94
2023-05-21T17:49:29.701Z,100232.66
2023-05-21T17:52:32.352Z,100222.28
2023-05-21T17:55:35.697Z,100229.59
2023-05-21T17:58:38.571Z,100234.47
2023-05-21T18:01:41.476Z,100232.56
2023-05-21T18:04:44.426Z,100227.78
2023-05-21T18:07:46.918Z,100233.03
2023-05-21T18:10:49.996Z,100226.66
2023-05-21T18:13:55.971Z,100225.50
2023-05-21T18:16:59.013Z,100227.97
2023-05-21T18:20:10.029Z,100225.59
2023-05-21T18:23:19.100Z,100214.84
2023-05-21T18:26:22.263Z,100218.50
2023-05-21T18:29:25.002Z,100226.97
2023-05-21T18:32:28.758Z,100230.25
2023-05-21T18:35:31.872Z,100224.34
2023-05-21T18:38:34.291Z,100234.06
2023-05-21T18:41:39.412Z,100238.62
2023-05-21T18:45:11.457Z,100239.12
2023-05-21T18:48:14.161Z,100232.44
2023-05-21T18:51:16.996Z,100237.72
2023-05-21T18:54:19.789Z,100238.97
2023-05-21T18:57:22.240Z,100241.44
2023-05-21T19:00:25.657Z,100242.31
2023-05-21T19:03:28.123Z,100243.59
2023-05-21T19:06:31.344Z,100242.88
2023-05-21T19:09:33.897Z,100248.91
2023-05-21T19:12:37.130Z,100240.91
2023-05-21T19:15:39.931Z,100244.53
2023-05-21T19:18:43.905Z,100226.69
2023-05-21T19:21:46.446Z,100254.28
2023-05-21T19:24:49.273Z,100257.94
2023-05-21T19:27:52.813Z,100257.13
2023-05-21T19:30:55.617Z,100258.81
2023-05-21T19:33:58.034Z,100264.84
2023-05-21T19:37:01.396Z,100266.50
2023-05-21T19:40:06.140Z,100267.72
2023-05-21T19:43:08.789Z,100268.53
2023-05-21T19:46:11.436Z,100270.19
2023-05-21T19:49:15.903Z,100265.41
2023-05-21T19:52:18.513Z,100260.22
2023-05-21T19:55:21.277Z,100262.22
2023-05-21T19:58:23.800Z,100275.81
2023-05-21T20:01:28.742Z,100245.84
2023-05-21T20:04:32.627Z,100266.22
2023-05-21T20:07:35.009Z,100261.47
2023-05-21T20:10:40.727Z,100269.88
2023-05-21T20:13:48.576Z,100273.50
2023-05-21T20:17:11.967Z,100265.50
2023-05-21T20:20:23.126Z,100274.72
2023-05-21T20:23:26.456Z,100272.34
2023-05-21T20:26:29.699Z,100274.37
2023-05-21T20:29:32.464Z,100270.00
2023-05-21T20:32:39.670Z,100272.00
2023-05-21T20:35:42.737Z,100221.75
2023-05-21T20:38:45.715Z,100263.22
2023-05-21T20:41:48.447Z,100264.44
2023-05-21T20:44:52.907Z,100259.28
2023-05-21T20:47:58.666Z,100260.47
2023-05-21T20:51:02.681Z,100262.47
2023-05-21T20:54:05.548Z,100267.69
2023-05-21T20:57:09.171Z,100270.47
2023-05-21T21:00:12.850Z,100250.53
2023-05-21T21:03:17.674Z,100270.47
2023-05-21T21:06:20.909Z,100273.28
2023-05-21T21:09:23.248Z,100260.87
2023-05-21T21:12:26.995Z,100265.69
2023-05-21T21:15:29.497Z,100252.91
2023-05-21T21:18:32.174Z,100245.72
2023-05-21T21:21:34.513Z,100243.31
2023-05-21T21:24:37.126Z,100253.72
2023-05-21T21:27:39.459Z,100244.56
2023-05-21T21:30:42.313Z,100250.91
2023-05-21T21:33:44.680Z,100266.09
2023-05-21T21:36:47.844Z,100256.12
2023-05-21T21:39:50.185Z,100289.72
2023-05-21T21:42:53.089Z,100279.31
2023-05-21T21:45:55.538Z,100254.13
2023-05-21T21:48:58.244Z,100269.72
2023-05-21T21:52:01.469Z,100292.53
2023-05-21T21:55:04.382Z,100272.16
2023-05-21T21:58:07.090Z,100295.34
2023-05-21T22:01:09.821Z,100280.16
2023-05-21T22:04:12.731Z,100294.56
2023-05-21T22:07:17.932Z,100289.75
2023-05-21T22:10:21.277Z,100284.97
2023-05-21T22:13:24.605Z,100284.16
2023-05-21T22:16:28.338Z,100283.78
2023-05-21T22:19:32.788Z,100282.97
2023-05-21T22:22:35.494Z,100288.16
2023-05-21T22:25:37.917Z,100293.75
2023-05-21T22:28:40.574Z,100273.38
2023-05-21T22:31:42.984Z,100293.75
2023-05-21T22:34:45.893Z,100281.37
2023-05-21T22:37:48.826Z,100300.16
2023-05-21T22:40:51.607Z,100301.75
2023-05-21T22:43:53.962Z,100287.75
2023-05-21T22:47:00.221Z,100284.16
2023-05-21T22:50:04.254Z,100290.56
2023-05-21T22:53:07.058Z,100278.56
2023-05-21T22:56:09.417Z,100297.75
2023-05-21T22:59:12.146Z,100291.34
2023-05-21T23:02:15.709Z,100274.56
2023-05-21T23:05:18.620Z,100286.50
2023-05-21T23:08:21.103Z,100284.91
2023-05-21T23:11:23.845Z,100275.72
2023-05-21T23:14:26.211Z,100274.50
2023-05-21T23:17:28.980Z,100299.31
2023-05-21T23:20:32.380Z,100278.50
2023-05-21T23:23:34.940Z,100295.34
2023-05-21T23:26:37.312Z,100301.69
2023-05-21T23:29:39.939Z,100281.69
2023-05-21T23:32:42.305Z,100271.31
2023-05-21T23:35:45.116Z,100294.47
2023-05-21T23:38:47.465Z,100310.84
2023-05-21T23:41:50.411Z,100302.06
2023-05-21T23:44:52.857Z,100304.47
2023-05-21T23:47:55.697Z,100298.44
2023-05-21T23:50:58.058Z,100280.06
2023-05-21T23:54:01.050Z,100306.41
2023-05-21T23:57:03.563Z,100268.88
